Time;durP1;ratioP1;P1;durP2;ratioP2;P2;SDS_P1;SDS_P2;PMS_P1;PMS_P2;Temp;Humidity;BMP_temperature;BMP_pressure;BME280_temperature;BME280_humidity;BME280_pressure;Samples;Min_cycle;Max_cycle;Signal;HPM_P1;HPM_P2
2022/07/15 00:00:13;;;;;;;6.75;5.68;;;17.50;99.90;;;;;;5010811;28;20034;-85
2022/07/15 00:02:39;;;;;;;8.40;6.47;;;17.50;99.90;;;;;;5002513;28;20551;-88
2022/07/15 00:05:06;;;;;;;6.43;5.80;;;17.50;99.90;;;;;;4978001;28;20307;-88
2022/07/15 00:07:33;;;;;;;6.13;5.43;;;17.50;99.90;;;;;;5004662;28;20475;-86
2022/07/15 00:10:13;;;;;;;6.95;5.30;;;17.50;99.90;;;;;;4977729;28;20514;-88
2022/07/15 00:12:44;;;;;;;7.82;5.10;;;17.40;99.90;;;;;;4995054;28;20093;-88
2022/07/15 00:15:10;;;;;;;6.20;5.20;;;17.40;99.90;;;;;;4994981;28;20026;-84
2022/07/15 00:17:36;;;;;;;9.57;5.20;;;17.40;99.90;;;;;;4994366;28;20022;-84
2022/07/15 00:20:04;;;;;;;7.10;5.43;;;17.40;99.90;;;;;;5008496;28;20044;-89
2022/07/15 00:22:31;;;;;;;8.25;4.90;;;17.50;99.90;;;;;;5000314;28;20010;-87
2022/07/15 00:24:57;;;;;;;5.45;4.93;;;17.40;99.90;;;;;;5009082;28;20061;-88
2022/07/15 00:27:23;;;;;;;4.15;3.80;;;17.40;99.90;;;;;;5015748;28;20029;-89
2022/07/15 00:29:50;;;;;;;5.25;4.57;;;17.40;99.90;;;;;;5008915;28;20498;-84
2022/07/15 00:32:16;;;;;;;7.00;4.72;;;17.40;99.90;;;;;;4994172;28;20018;-87
2022/07/15 00:34:42;;;;;;;4.78;4.05;;;17.30;99.90;;;;;;4994279;28;20026;-87
2022/07/15 00:37:08;;;;;;;4.18;3.67;;;17.30;99.90;;;;;;5004571;28;20176;-88
2022/07/15 00:39:34;;;;;;;5.72;3.88;;;17.30;99.90;;;;;;4978990;28;20049;-87
2022/07/15 00:42:00;;;;;;;7.03;3.85;;;17.40;99.90;;;;;;4998144;28;20033;-89
2022/07/15 00:44:26;;;;;;;4.97;4.18;;;17.30;99.90;;;;;;5009623;28;20010;-88
2022/07/15 00:46:53;;;;;;;4.47;3.50;;;17.30;99.90;;;;;;5015582;28;20104;-89
2022/07/15 00:49:20;;;;;;;11.23;4.38;;;17.30;99.90;;;;;;5001094;28;20072;-89
2022/07/15 00:51:51;;;;;;;6.25;4.00;;;17.20;99.90;;;;;;5002954;28;20039;-90
2022/07/15 00:54:23;;;;;;;8.15;4.05;;;17.20;99.90;;;;;;5005335;28;20105;-89
2022/07/15 00:56:54;;;;;;;5.80;4.50;;;17.20;99.90;;;;;;5018912;28;20051;-89
2022/07/15 00:59:23;;;;;;;8.45;4.07;;;17.20;99.90;;;;;;5014215;28;20022;-91
2022/07/15 01:01:51;;;;;;;3.78;3.47;;;17.10;99.90;;;;;;4985609;28;20026;-90
2022/07/15 01:04:21;;;;;;;6.47;4.00;;;17.10;99.90;;;;;;5011766;28;20046;-91
2022/07/15 01:06:47;;;;;;;3.90;3.47;;;17.10;99.90;;;;;;4995574;28;20161;-90
2022/07/15 01:09:13;;;;;;;7.88;4.35;;;17.10;99.90;;;;;;5029686;28;20036;-90
2022/07/15 01:11:38;;;;;;;8.40;4.22;;;17.10;99.90;;;;;;5010284;23;20063;-89
2022/07/15 01:14:06;;;;;;;5.78;3.83;;;17.10;99.90;;;;;;4991177;28;20019;-89
2022/07/15 01:16:34;;;;;;;4.95;4.43;;;17.10;99.90;;;;;;4989349;28;20033;-89
2022/07/15 01:19:00;;;;;;;6.60;4.43;;;17.10;99.90;;;;;;4984366;28;20027;-90
2022/07/15 01:21:26;;;;;;;4.90;4.13;;;17.10;99.90;;;;;;4964010;28;20031;-91
2022/07/15 01:23:53;;;;;;;5.63;4.30;;;17.00;99.90;;;;;;4966015;28;20476;-91
2022/07/15 01:26:19;;;;;;;9.15;4.20;;;17.10;99.90;;;;;;4965864;28;20031;-88
2022/07/15 01:28:44;;;;;;;6.43;4.20;;;17.10;99.90;;;;;;4977039;28;20126;-91
2022/07/15 01:31:10;;;;;;;5.70;4.32;;;17.10;99.90;;;;;;4976487;28;20023;-90
2022/07/15 01:33:38;;;;;;;8.98;4.45;;;17.10;99.90;;;;;;4976614;28;20090;-90
2022/07/15 01:36:04;;;;;;;;;;;17.10;99.90;;;;;;4982589;28;20034;-89
2022/07/15 01:38:30;;;;;;;4.90;4.35;;;17.10;99.90;;;;;;4975825;28;19906;-90
2022/07/15 01:40:56;;;;;;;5.97;5.13;;;17.10;99.90;;;;;;4963759;28;20046;-91
2022/07/15 01:43:23;;;;;;;9.20;4.60;;;17.10;99.90;;;;;;4983152;28;20027;-91
2022/07/15 01:45:49;;;;;;;7.97;4.97;;;17.10;99.90;;;;;;4991343;28;20027;-91
2022/07/15 01:51:01;;;;;;;7.57;4.60;;;17.10;99.90;;;;;;5008094;28;20068;-90
2022/07/15 01:53:28;;;;;;;6.03;5.20;;;17.00;99.90;;;;;;4965223;28;20051;-91
2022/07/15 01:55:55;;;;;;;5.30;4.80;;;17.00;99.90;;;;;;4994410;28;20061;-89
2022/07/15 01:58:21;;;;;;;5.72;5.13;;;16.90;99.90;;;;;;4983243;28;20022;-89
2022/07/15 02:00:49;;;;;;;4.78;4.28;;;16.90;99.90;;;;;;5000116;28;20079;-89
2022/07/15 02:03:15;;;;;;;5.93;4.57;;;16.90;99.90;;;;;;4989807;28;20495;-91
2022/07/15 02:05:41;;;;;;;5.18;4.68;;;16.80;99.90;;;;;;4999454;28;20034;-90
2022/07/15 02:08:08;;;;;;;9.88;5.13;;;16.80;99.90;;;;;;4984609;28;20030;-91
2022/07/15 02:10:41;;;;;;;5.43;4.78;;;16.70;99.90;;;;;;4971343;28;20117;-91
2022/07/15 02:13:09;;;;;;;7.72;5.15;;;16.70;99.90;;;;;;4990531;28;20033;-91
2022/07/15 02:15:35;;;;;;;9.23;5.13;;;16.70;99.90;;;;;;4974505;28;20014;-90
2022/07/15 02:18:02;;;;;;;5.10;4.15;;;16.70;99.90;;;;;;4982502;28;20018;-90
2022/07/15 02:20:28;;;;;;;6.15;4.45;;;16.70;99.90;;;;;;4972608;28;20131;-91
2022/07/15 02:22:57;;;;;;;5.35;4.85;;;16.60;99.90;;;;;;4981964;28;20022;-90
2022/07/15 02:25:25;;;;;;;5.82;5.07;;;16.60;99.90;;;;;;4984675;28;20031;-90
2022/07/15 02:27:59;;;;;;;8.30;5.43;;;16.60;99.90;;;;;;4992607;28;20387;-89
2022/07/15 02:30:27;;;;;;;10.57;5.13;;;16.60;99.90;;;;;;4980417;28;20095;-91
2022/07/15 02:32:53;;;;;;;7.85;4.50;;;16.60;99.90;;;;;;4969046;28;20030;-90
2022/07/15 02:35:21;;;;;;;6.50;4.65;;;16.60;99.90;;;;;;4981139;28;20069;-89
2022/07/15 02:37:46;;;;;;;;;;;16.60;99.90;;;;;;4964454;28;20037;-92
2022/07/15 02:40:12;;;;;;;6.63;4.47;;;16.60;99.90;;;;;;4983318;28;19914;-92
2022/07/15 02:42:39;;;;;;;8.88;4.43;;;16.60;99.90;;;;;;4964633;28;20082;-91
2022/07/15 02:45:07;;;;;;;5.47;4.03;;;16.60;99.90;;;;;;4975221;28;20096;-90
2022/07/15 02:47:33;;;;;;;6.65;4.60;;;16.60;99.90;;;;;;5012567;28;20010;-88
2022/07/15 02:49:59;;;;;;;6.80;4.55;;;16.60;99.90;;;;;;5008850;28;20037;-92
2022/07/15 02:52:26;;;;;;;6.97;4.53;;;16.60;99.90;;;;;;4983981;28;20110;-90
2022/07/15 02:54:52;;;;;;;8.30;4.93;;;16.60;99.90;;;;;;4965804;28;20035;-91
2022/07/15 02:57:18;;;;;;;5.85;4.32;;;16.60;99.90;;;;;;4994151;28;20030;-90
2022/07/15 02:59:44;;;;;;;6.72;4.22;;;16.60;99.90;;;;;;4991211;28;20055;-90
2022/07/15 03:02:09;;;;;;;4.72;4.18;;;16.70;99.90;;;;;;4995478;28;20084;-90
2022/07/15 03:04:35;;;;;;;4.88;4.05;;;16.70;99.90;;;;;;4995342;28;20027;-89
2022/07/15 03:07:01;;;;;;;7.70;4.32;;;16.80;99.90;;;;;;5012065;28;20069;-90
2022/07/15 03:09:27;;;;;;;5.38;4.05;;;16.80;99.90;;;;;;5009610;28;20042;-89
2022/07/15 03:11:53;;;;;;;4.32;3.75;;;16.80;99.90;;;;;;4990306;28;20392;-90
2022/07/15 03:14:18;;;;;;;3.90;3.45;;;16.90;99.90;;;;;;4991673;28;20054;-90
2022/07/15 03:16:45;;;;;;;3.30;3.00;;;17.10;99.90;;;;;;4986412;28;20031;-89
2022/07/15 03:19:11;;;;;;;3.60;3.30;;;17.40;99.90;;;;;;4979418;28;20022;-90
2022/07/15 03:21:37;;;;;;;4.00;2.40;;;17.70;99.90;;;;;;4998139;28;20142;-88
2022/07/15 03:24:04;;;;;;;4.78;3.35;;;18.00;99.90;;;;;;4981613;28;20053;-91
2022/07/15 03:26:29;;;;;;;13.60;2.97;;;18.40;99.90;;;;;;4990107;28;20033;-93
2022/07/15 03:28:57;;;;;;;3.10;2.80;;;18.60;98.90;;;;;;4982542;28;20059;-91
2022/07/15 03:31:23;;;;;;;5.53;3.13;;;18.80;98.30;;;;;;4978244;28;20030;-91
2022/07/15 03:33:49;;;;;;;4.38;2.78;;;19.00;98.00;;;;;;4989143;28;20018;-91
2022/07/15 03:36:15;;;;;;;6.03;2.60;;;19.00;97.20;;;;;;5007610;28;20106;-88
2022/07/15 03:38:40;;;;;;;5.82;3.35;;;19.00;97.10;;;;;;4987690;28;20379;-90
2022/07/15 03:41:06;;;;;;;3.67;2.83;;;19.00;96.70;;;;;;4973071;28;20474;-91
2022/07/15 03:43:32;;;;;;;3.47;2.67;;;19.00;96.60;;;;;;4974072;28;20109;-92
2022/07/15 03:45:58;;;;;;;5.20;2.67;;;19.20;96.60;;;;;;4979636;28;20022;-91
2022/07/15 03:48:24;;;;;;;3.03;2.40;;;19.30;95.70;;;;;;4983114;28;20026;-90
2022/07/15 03:50:49;;;;;;;5.10;2.60;;;19.30;95.70;;;;;;4968356;28;20023;-91
2022/07/15 03:53:15;;;;;;;6.05;2.80;;;19.20;95.30;;;;;;4979592;28;20494;-92
2022/07/15 03:55:41;;;;;;;3.63;2.53;;;19.00;95.30;;;;;;4980381;28;20027;-91
2022/07/15 03:58:08;;;;;;;3.00;2.70;;;18.70;95.10;;;;;;4973577;28;20109;-92
2022/07/15 04:00:36;;;;;;;3.88;2.50;;;18.50;95.70;;;;;;4969921;28;20054;-91
2022/07/15 04:03:02;;;;;;;3.65;2.90;;;18.30;96.10;;;;;;4963289;28;20027;-90
2022/07/15 04:05:27;;;;;;;3.15;2.40;;;18.20;96.30;;;;;;4984323;28;20037;-92
2022/07/15 04:07:53;;;;;;;3.53;2.78;;;18.10;96.70;;;;;;4983471;28;20027;-94
2022/07/15 04:10:19;;;;;;;4.57;2.67;;;18.10;97.10;;;;;;4976656;28;20069;-92
2022/07/15 04:12:45;;;;;;;4.40;2.80;;;18.10;97.50;;;;;;4974527;28;20030;-90
2022/07/15 04:15:14;;;;;;;4.03;2.67;;;18.30;97.30;;;;;;4967542;28;20126;-91
2022/07/15 04:17:41;;;;;;;7.68;3.17;;;18.50;97.00;;;;;;4968777;28;20018;-91
2022/07/15 04:20:08;;;;;;;5.93;2.60;;;18.50;96.60;;;;;;4976810;28;20038;-90
2022/07/15 04:22:46;;;;;;;4.10;2.63;;;18.60;96.20;;;;;;4964864;28;20027;-91
2022/07/15 04:25:16;;;;;;;3.90;2.85;;;18.60;96.20;;;;;;4972129;28;20092;-92
2022/07/15 04:27:43;;;;;;;3.42;2.60;;;18.70;96.00;;;;;;4970045;28;20029;-91
2022/07/15 04:30:09;;;;;;;3.30;3.00;;;18.80;96.00;;;;;;4983624;28;20086;-91
2022/07/15 04:32:36;;;;;;;7.03;2.80;;;19.00;95.80;;;;;;4976384;28;20027;-90
2022/07/15 04:35:02;;;;;;;4.50;2.92;;;19.10;95.60;;;;;;4965447;28;20096;-92
2022/07/15 04:37:28;;;;;;;5.82;2.85;;;19.20;95.30;;;;;;4972042;28;20081;-89
2022/07/15 04:39:55;;;;;;;3.63;2.95;;;19.20;95.00;;;;;;4976563;28;20038;-91
2022/07/15 04:42:21;;;;;;;5.20;2.77;;;19.30;95.00;;;;;;4964586;28;20019;-89
2022/07/15 04:44:47;;;;;;;6.03;2.70;;;19.30;94.50;;;;;;4984580;28;20026;-89
2022/07/15 04:47:14;;;;;;;4.80;2.67;;;19.40;94.20;;;;;;4994737;28;20033;-89
2022/07/15 04:52:27;;;;;;;5.97;2.50;;;19.40;93.90;;;;;;5013107;28;20045;-89
2022/07/15 04:54:53;;;;;;;6.30;2.83;;;19.40;94.00;;;;;;4995964;28;20114;-90
2022/07/15 04:57:20;;;;;;;7.70;2.55;;;19.50;93.60;;;;;;4988299;28;20042;-89
2022/07/15 04:59:46;;;;;;;2.53;2.33;;;19.50;93.50;;;;;;4977792;28;20087;-91
2022/07/15 05:02:12;;;;;;;5.43;2.83;;;19.50;93.90;;;;;;4969255;28;20068;-90
2022/07/15 05:04:39;;;;;;;2.80;2.13;;;19.60;94.00;;;;;;4966292;28;20058;-89
2022/07/15 05:07:05;;;;;;;3.67;2.30;;;19.70;93.70;;;;;;4991433;28;20018;-89
2022/07/15 05:09:43;;;;;;;3.67;2.03;;;19.80;93.40;;;;;;4983610;28;20030;-90
2022/07/15 05:12:08;;;;;;;5.13;2.17;;;20.20;93.50;;;;;;4983124;28;20053;-90
2022/07/15 05:14:34;;;;;;;4.82;2.05;;;20.90;92.40;;;;;;4972589;28;20034;-90
2022/07/15 05:17:00;;;;;;;5.28;2.30;;;21.90;90.40;;;;;;4988860;28;20022;-91
2022/07/15 05:19:26;;;;;;;4.05;1.83;;;22.90;85.00;;;;;;4971758;28;20129;-90
2022/07/15 05:21:52;;;;;;;2.15;1.80;;;23.70;80.50;;;;;;4988372;28;20011;-89
2022/07/15 05:24:18;;;;;;;4.47;1.90;;;24.50;77.50;;;;;;4966019;28;20046;-90
2022/07/15 05:26:45;;;;;;;5.90;2.47;;;25.20;73.60;;;;;;4965104;28;20124;-90
2022/07/15 05:29:11;;;;;;;5.20;2.03;;;25.60;71.10;;;;;;4980746;28;20127;-90
2022/07/15 05:31:36;;;;;;;3.40;1.77;;;25.90;69.20;;;;;;4950157;28;20034;-90
2022/07/15 05:34:02;;;;;;;9.18;2.47;;;26.30;67.20;;;;;;5003425;28;20093;-90
2022/07/15 05:36:28;;;;;;;3.20;2.17;;;26.90;65.80;;;;;;4980087;28;20176;-90
2022/07/15 05:38:54;;;;;;;4.25;1.90;;;27.40;63.80;;;;;;4978504;28;20027;-89
2022/07/15 05:41:20;;;;;;;3.05;1.70;;;27.80;63.90;;;;;;4998677;28;20030;-91
2022/07/15 05:43:45;;;;;;;5.82;3.30;;;28.40;61.60;;;;;;4980205;28;20026;-90
2022/07/15 05:46:12;;;;;;;5.75;2.50;;;29.30;59.90;;;;;;4998305;28;20027;-89
2022/07/15 05:48:39;;;;;;;2.83;1.60;;;30.00;57.70;;;;;;5004347;28;20087;-88
2022/07/15 05:51:05;;;;;;;5.65;1.70;;;30.50;54.60;;;;;;4984799;28;20027;-90
2022/07/15 05:53:32;;;;;;;3.08;1.38;;;30.70;54.40;;;;;;4996942;28;20368;-88
2022/07/15 05:55:59;;;;;;;1.88;1.50;;;31.00;52.80;;;;;;4993517;28;20033;-90
2022/07/15 05:58:25;;;;;;;4.22;1.77;;;31.40;51.60;;;;;;4975208;28;20076;-89
2022/07/15 06:00:52;;;;;;;3.92;1.35;;;31.60;50.10;;;;;;4969766;28;20113;-90
2022/07/15 06:03:18;;;;;;;3.05;1.40;;;31.80;49.00;;;;;;4979098;28;20027;-88
2022/07/15 06:05:44;;;;;;;1.15;1.05;;;32.10;49.00;;;;;;4985276;28;20479;-87
2022/07/15 06:08:11;;;;;;;8.05;2.25;;;32.10;48.90;;;;;;4974590;28;20073;-89
2022/07/15 06:10:37;;;;;;;3.33;1.90;;;32.70;48.20;;;;;;4985315;28;20046;-89
2022/07/15 06:13:03;;;;;;;1.77;1.23;;;33.20;46.80;;;;;;4994831;28;20289;-90
2022/07/15 06:15:30;;;;;;;3.15;1.95;;;33.70;46.10;;;;;;5002618;28;20010;-90
2022/07/15 06:17:56;;;;;;;2.40;1.77;;;34.50;45.40;;;;;;4974548;28;20122;-91
2022/07/15 06:20:22;;;;;;;2.33;1.75;;;35.50;43.60;;;;;;4985784;28;20118;-91
2022/07/15 06:22:48;;;;;;;3.55;2.00;;;36.10;42.40;;;;;;4977880;28;20026;-90
2022/07/15 06:25:15;;;;;;;1.83;1.33;;;35.60;42.40;;;;;;4977097;28;20023;-88
2022/07/15 06:27:41;;;;;;;4.05;1.73;;;35.30;42.40;;;;;;4968940;28;20054;-89
2022/07/15 06:30:07;;;;;;;3.17;1.90;;;35.90;41.80;;;;;;4976386;28;20035;-87
2022/07/15 06:32:33;;;;;;;;;;;36.80;40.10;;;;;;4978163;28;20046;-88
2022/07/15 06:34:59;;;;;;;2.45;1.55;;;37.20;42.10;;;;;;4963951;28;19906;-87
2022/07/15 06:37:26;;;;;;;;;;;36.30;40.10;;;;;;4981541;28;20043;-92
2022/07/15 06:39:54;;;;;;;3.63;1.85;;;35.90;43.00;;;;;;4977044;28;19940;-89
2022/07/15 06:42:21;;;;;;;2.92;1.77;;;35.90;41.30;;;;;;4994151;28;20018;-89
2022/07/15 06:44:47;;;;;;;7.30;1.77;;;36.70;40.80;;;;;;4972427;28;20023;-88
2022/07/15 06:47:13;;;;;;;2.53;1.63;;;37.30;38.70;;;;;;4974753;28;20027;-89
2022/07/15 06:49:38;;;;;;;6.43;1.90;;;37.70;37.60;;;;;;4980521;28;20027;-87
2022/07/15 06:52:05;;;;;;;3.75;2.33;;;37.20;38.40;;;;;;4965894;28;20396;-88
2022/07/15 06:54:31;;;;;;;6.05;1.42;;;37.40;38.20;;;;;;4985581;28;20037;-89
2022/07/15 06:56:59;;;;;;;2.22;1.48;;;37.60;37.40;;;;;;5009343;28;20031;-88
2022/07/15 06:59:25;;;;;;;2.15;1.48;;;37.10;37.40;;;;;;4984729;28;20376;-88
2022/07/15 07:01:52;;;;;;;1.83;1.63;;;38.00;37.60;;;;;;4980993;28;20106;-88
2022/07/15 07:04:18;;;;;;;;;;;38.20;36.60;;;;;;4988475;28;20103;-88
2022/07/15 07:06:44;;;;;;;2.67;1.60;;;38.60;37.90;;;;;;4989873;28;19914;-88
2022/07/15 07:09:11;;;;;;;5.40;1.42;;;39.50;36.10;;;;;;4984013;28;20018;-89
2022/07/15 07:11:37;;;;;;;3.22;1.77;;;41.70;36.00;;;;;;4968214;28;20132;-89
2022/07/15 07:14:03;;;;;;;4.55;2.50;;;41.60;34.00;;;;;;4982840;28;20036;-88
2022/07/15 07:16:29;;;;;;;4.70;1.98;;;41.90;33.80;;;;;;4982188;28;20019;-89
2022/07/15 07:18:55;;;;;;;6.13;3.42;;;42.00;33.30;;;;;;4986610;28;20077;-89
2022/07/15 07:21:21;;;;;;;4.35;2.25;;;41.50;33.90;;;;;;4962420;28;20030;-89
2022/07/15 07:23:47;;;;;;;6.13;2.40;;;40.50;34.00;;;;;;4966106;28;20512;-90
2022/07/15 07:26:14;;;;;;;3.65;2.25;;;40.30;34.90;;;;;;4961677;28;20070;-90
2022/07/15 07:28:40;;;;;;;3.03;1.75;;;40.30;34.50;;;;;;4977407;28;20027;-88
2022/07/15 07:31:11;;;;;;;4.80;2.35;;;39.50;34.40;;;;;;4970546;28;20023;-89
2022/07/15 07:33:37;;;;;;;5.55;2.63;;;38.40;36.30;;;;;;4976909;28;20015;-87
2022/07/15 07:36:03;;;;;;;;;;;;;;;;;;4960969;28;20027;-89
2022/07/15 07:38:30;;;;;;;6.22;2.60;;;;;;;;;;4986721;28;19905;-90
2022/07/15 07:40:56;;;;;;;;;;;;;;;;;;5007164;28;20030;-88
2022/07/15 07:43:22;;;;;;;3.85;1.83;;;;;;;;;;5001647;28;19932;-88
2022/07/15 07:45:48;;;;;;;;;;;;;;;;;;5013536;28;20026;-90
2022/07/15 07:48:16;;;;;;;4.15;2.13;;;;;;;;;;4977419;28;19912;-90
2022/07/15 07:50:43;;;;;;;4.72;2.42;;;37.50;37.40;;;;;;4995063;28;20050;-91
2022/07/15 07:53:10;;;;;;;7.07;2.50;;;36.00;36.70;;;;;;4984394;28;20026;-90
2022/07/15 07:55:36;;;;;;;4.30;2.35;;;35.80;37.80;;;;;;4993709;28;20022;-90
2022/07/15 07:58:02;;;;;;;3.70;2.47;;;35.50;38.40;;;;;;4962221;28;20391;-89
2022/07/15 08:00:30;;;;;;;7.80;2.17;;;35.90;38.00;;;;;;4989531;28;20042;-91
2022/07/15 08:02:57;;;;;;;4.47;2.20;;;36.60;37.30;;;;;;4987009;28;20034;-90
2022/07/15 08:05:23;;;;;;;3.97;1.92;;;36.50;36.20;;;;;;4990286;28;20029;-90
2022/07/15 08:07:49;;;;;;;6.40;2.40;;;;;;;;;;4989821;28;20483;-86
2022/07/15 08:10:19;;;;;;;3.72;2.50;;;35.70;36.00;;;;;;4986084;28;20345;-88
2022/07/15 08:12:45;;;;;;;6.85;2.28;;;35.80;36.60;;;;;;4986821;28;20035;-88
2022/07/15 08:15:12;;;;;;;2.50;1.98;;;36.30;36.20;;;;;;4968476;28;20063;-88
2022/07/15 08:17:39;;;;;;;2.90;2.22;;;37.40;34.70;;;;;;4958718;28;20119;-87
2022/07/15 08:20:09;;;;;;;4.10;1.63;;;37.80;34.50;;;;;;4963111;28;20067;-89
2022/07/15 08:22:36;;;;;;;4.13;2.00;;;37.90;34.40;;;;;;4965439;28;20031;-88
2022/07/15 08:25:02;;;;;;;5.65;1.75;;;39.50;34.40;;;;;;4961663;28;20028;-87
2022/07/15 08:27:30;;;;;;;2.22;1.60;;;;;;;;;;4981092;28;20030;-86
2022/07/15 08:29:56;;;;;;;6.32;2.17;;;39.80;33.30;;;;;;4960807;28;20037;-91
2022/07/15 08:32:22;;;;;;;3.50;2.17;;;40.80;30.80;;;;;;4962059;28;20110;-89
2022/07/15 08:34:47;;;;;;;7.40;1.73;;;38.80;31.20;;;;;;4975429;28;20035;-88
2022/07/15 08:37:14;;;;;;;4.53;1.70;;;36.70;32.80;;;;;;4974600;28;20042;-87
2022/07/15 08:39:40;;;;;;;;;;;35.30;34.60;;;;;;4963701;28;20331;-89
2022/07/15 08:42:06;;;;;;;4.82;1.85;;;35.10;35.50;;;;;;4982204;28;20364;-87
2022/07/15 08:44:32;;;;;;;4.72;1.70;;;36.30;35.70;;;;;;4983069;28;20476;-86
2022/07/15 08:47:06;;;;;;;;;;;37.60;34.00;;;;;;4979988;28;20118;-88
2022/07/15 08:49:33;;;;;;;4.22;1.65;;;38.90;34.00;;;;;;5006224;28;19914;-89
2022/07/15 08:52:01;;;;;;;3.15;1.73;;;37.90;32.70;;;;;;4982180;28;20023;-88
2022/07/15 08:54:29;;;;;;;3.80;1.77;;;36.20;33.90;;;;;;4988215;28;20435;-87
2022/07/15 08:56:55;;;;;;;3.60;1.45;;;36.40;34.80;;;;;;4980944;28;20018;-86
2022/07/15 08:59:21;;;;;;;1.73;1.25;;;37.90;33.20;;;;;;5012840;28;20038;-87
2022/07/15 09:01:50;;;;;;;4.07;1.92;;;37.80;32.60;;;;;;4999134;28;20043;-87
2022/07/15 09:04:21;;;;;;;3.97;1.58;;;37.90;32.90;;;;;;4997291;28;20018;-86
2022/07/15 09:06:49;;;;;;;5.25;1.90;;;37.10;33.30;;;;;;4963702;28;20377;-88
2022/07/15 09:09:31;;;;;;;5.00;2.10;;;36.80;33.70;;;;;;4978669;28;20027;-85
2022/07/15 09:12:11;;;;;;;3.28;2.35;;;35.80;34.50;;;;;;4980325;28;20118;-86
2022/07/15 09:14:39;;;;;;;5.25;3.25;;;34.50;35.10;;;;;;4993290;28;20015;-87
2022/07/15 09:17:10;;;;;;;5.35;3.05;;;33.90;36.20;;;;;;4985995;28;20027;-85
2022/07/15 09:19:59;;;;;;;4.15;2.35;;;34.40;36.00;;;;;;4971487;28;20421;-85
2022/07/15 09:22:28;;;;;;;7.95;2.45;;;35.20;35.10;;;;;;4993284;28;20018;-85
2022/07/15 09:25:09;;;;;;;4.05;2.45;;;36.50;34.60;;;;;;4986327;28;20392;-86
2022/07/15 09:27:41;;;;;;;2.33;1.42;;;39.30;31.70;;;;;;4990197;28;20113;-87
2022/07/15 09:36:08;;;;;;;4.22;1.80;;;39.70;30.10;;;;;;4978019;28;20034;-85
2022/07/15 09:38:47;;;;;;;3.45;1.63;;;40.60;30.00;;;;;;4977404;28;20058;-85
2022/07/15 09:41:21;;;;;;;4.35;1.42;;;40.30;29.80;;;;;;4976670;28;20030;-84
2022/07/15 09:44:01;;;;;;;3.10;1.45;;;40.50;29.50;;;;;;4976661;28;20375;-83
2022/07/15 09:46:49;;;;;;;4.53;1.40;;;40.90;29.40;;;;;;4978653;28;20027;-82
2022/07/15 09:49:31;;;;;;;1.73;1.40;;;40.40;29.60;;;;;;4971179;28;20436;-84
2022/07/15 09:52:01;;;;;;;3.60;1.60;;;39.00;29.40;;;;;;4981397;28;20057;-86
2022/07/15 09:54:32;;;;;;;5.35;1.60;;;36.40;31.10;;;;;;4979061;28;20023;-85
2022/07/15 09:57:00;;;;;;;3.30;1.58;;;35.30;33.80;;;;;;4977887;28;20598;-87
2022/07/15 09:59:27;;;;;;;2.42;1.58;;;36.20;33.60;;;;;;4957949;28;20030;-87
2022/07/15 10:01:53;;;;;;;4.68;1.60;;;37.70;32.60;;;;;;4980047;28;20034;-86
2022/07/15 10:04:22;;;;;;;2.05;1.20;;;38.70;31.70;;;;;;4994750;28;20101;-87
2022/07/15 10:06:53;;;;;;;6.10;1.40;;;38.60;30.20;;;;;;4994560;28;20228;-89
2022/07/15 10:09:31;;;;;;;5.18;1.60;;;37.50;31.30;;;;;;4989283;28;20365;-87
2022/07/15 10:12:01;;;;;;;5.75;1.67;;;36.90;31.90;;;;;;4999192;28;20114;-90
2022/07/15 10:14:38;;;;;;;4.63;2.55;;;37.60;31.10;;;;;;4996927;28;20506;-87
2022/07/15 10:17:20;;;;;;;4.47;2.17;;;37.20;31.80;;;;;;4970579;28;20061;-89
2022/07/15 10:19:52;;;;;;;5.50;1.65;;;37.10;32.70;;;;;;4979230;28;20391;-88
2022/07/15 10:22:40;;;;;;;2.72;1.45;;;38.20;31.90;;;;;;4981585;28;20022;-90
2022/07/15 10:25:17;;;;;;;3.55;1.50;;;38.60;31.10;;;;;;4974830;28;20033;-89
2022/07/15 10:28:21;;;;;;;4.10;1.83;;;37.60;31.20;;;;;;4975327;28;20026;-84
2022/07/15 10:31:13;;;;;;;5.30;2.40;;;37.30;32.50;;;;;;4945943;28;20031;-84
2022/07/15 10:33:40;;;;;;;7.18;2.35;;;37.50;32.50;;;;;;4983233;28;20023;-84
2022/07/15 10:36:07;;;;;;;6.50;2.03;;;36.30;31.70;;;;;;4995020;28;20034;-83
2022/07/15 10:38:37;;;;;;;4.30;1.90;;;34.10;32.80;;;;;;4977863;28;20350;-86
2022/07/15 10:41:09;;;;;;;3.92;1.70;;;33.20;34.20;;;;;;4964784;28;20042;-86
2022/07/15 10:43:50;;;;;;;2.92;2.63;;;31.90;36.40;;;;;;4971051;28;20018;-86
2022/07/15 10:46:20;;;;;;;4.28;1.55;;;30.50;37.20;;;;;;4959011;28;20058;-87
2022/07/15 10:48:58;;;;;;;5.22;1.50;;;30.20;38.70;;;;;;4981326;28;20023;-86
2022/07/15 10:51:35;;;;;;;2.05;1.77;;;29.50;38.80;;;;;;4980733;28;20487;-87
2022/07/15 10:54:03;;;;;;;2.75;1.90;;;28.80;40.20;;;;;;4976579;28;20042;-88
2022/07/15 10:56:35;;;;;;;;;;;28.40;40.80;;;;;;4989394;28;20122;-87
2022/07/15 10:59:21;;;;;;;3.75;2.13;;;27.80;40.10;;;;;;4984988;28;19928;-88
2022/07/15 11:02:09;;;;;;;3.57;2.33;;;27.40;41.60;;;;;;4963862;28;20027;-85
2022/07/15 11:04:35;;;;;;;2.92;1.70;;;26.80;43.50;;;;;;4978088;28;20074;-83
2022/07/15 11:07:10;;;;;;;3.33;1.90;;;26.40;44.00;;;;;;4991878;28;20483;-84
2022/07/15 11:09:55;;;;;;;4.05;2.00;;;25.90;45.10;;;;;;4992258;28;20093;-83
2022/07/15 11:12:30;;;;;;;3.35;2.03;;;25.50;45.60;;;;;;4991488;28;20042;-86
2022/07/15 11:15:00;;;;;;;4.72;2.17;;;25.50;46.10;;;;;;4990208;28;20019;-86
2022/07/15 11:17:29;;;;;;;4.57;2.03;;;25.70;46.40;;;;;;4978351;28;20082;-89
2022/07/15 11:19:57;;;;;;;3.88;2.30;;;26.10;46.70;;;;;;4980560;28;20019;-89
2022/07/15 11:22:44;;;;;;;5.57;2.45;;;26.20;45.70;;;;;;4983812;28;20026;-92
2022/07/15 11:25:18;;;;;;;;;;;26.40;46.40;;;;;;4987242;28;20444;-85
2022/07/15 11:28:03;;;;;;;3.33;2.28;;;26.40;45.50;;;;;;4975296;28;19946;-85
2022/07/15 11:30:42;;;;;;;3.65;2.47;;;26.50;46.40;;;;;;4976392;28;20144;-88
2022/07/15 11:33:14;;;;;;;5.90;2.60;;;26.60;47.20;;;;;;4990428;28;20029;-86
2022/07/15 11:36:01;;;;;;;4.28;2.65;;;26.70;47.10;;;;;;4987973;28;20022;-86
2022/07/15 11:38:30;;;;;;;6.88;2.50;;;26.70;46.00;;;;;;4981097;28;20114;-85
2022/07/15 11:46:48;;;;;;;3.47;2.28;;;25.60;47.50;;;;;;4981507;28;20041;-86
2022/07/15 11:49:35;;;;;;;7.90;2.38;;;25.30;48.00;;;;;;4966922;28;20543;-88
2022/07/15 11:52:04;;;;;;;3.42;2.60;;;25.00;48.60;;;;;;4973251;28;20487;-82
2022/07/15 11:54:30;;;;;;;21.42;5.35;;;24.80;49.30;;;;;;4999761;28;20117;-84
2022/07/15 11:56:58;;;;;;;5.40;3.08;;;24.90;49.70;;;;;;4978663;28;20391;-86
2022/07/15 11:59:24;;;;;;;5.45;2.58;;;25.20;50.10;;;;;;4989632;28;20380;-86
2022/07/15 12:02:02;;;;;;;3.03;2.30;;;25.40;49.90;;;;;;4961483;28;20084;-85
2022/07/15 12:04:28;;;;;;;5.78;2.50;;;25.40;48.40;;;;;;4965191;28;20022;-87
2022/07/15 12:06:54;;;;;;;10.75;3.55;;;25.40;49.40;;;;;;4984898;28;20114;-88
2022/07/15 12:09:20;;;;;;;6.53;2.80;;;25.50;48.60;;;;;;4962295;28;20054;-88
2022/07/15 12:11:45;;;;;;;13.52;3.85;;;25.80;49.00;;;;;;4991927;28;20042;-89
2022/07/15 12:14:30;;;;;;;16.38;5.05;;;26.10;48.10;;;;;;4972781;28;20022;-89
2022/07/15 12:16:57;;;;;;;8.35;3.50;;;26.10;47.60;;;;;;4962183;28;20201;-89
2022/07/15 12:19:24;;;;;;;4.22;2.22;;;26.10;47.00;;;;;;4987290;28;20027;-90
2022/07/15 12:21:54;;;;;;;29.52;6.35;;;26.00;47.00;;;;;;4995625;28;20053;-89
2022/07/15 12:27:35;;;;;;;9.20;2.58;;;25.60;47.20;;;;;;4904915;29;20013;-92
2022/07/15 12:30:07;;;;;;;23.02;4.68;;;25.30;47.60;;;;;;4901093;29;20037;-91
2022/07/15 12:32:33;;;;;;;14.63;3.28;;;25.20;47.10;;;;;;4878411;29;20081;-85
2022/07/15 12:35:02;;;;;;;5.10;2.30;;;25.10;46.90;;;;;;4879796;29;20025;-84
2022/07/15 12:37:50;;;;;;;14.70;3.90;;;25.20;47.50;;;;;;4886710;29;20029;-86
2022/07/15 12:40:23;;;;;;;10.73;4.07;;;25.40;48.00;;;;;;4883138;29;20124;-85
2022/07/15 12:42:53;;;;;;;7.35;2.92;;;25.70;47.10;;;;;;4887767;29;20438;-82
2022/07/15 12:45:29;;;;;;;5.60;2.67;;;25.50;47.40;;;;;;4892523;29;20128;-86
2022/07/15 12:48:07;;;;;;;6.07;2.00;;;25.60;48.10;;;;;;4890754;29;20025;-88
2022/07/15 12:50:51;;;;;;;9.60;2.55;;;25.90;47.80;;;;;;4885232;29;20554;-89
2022/07/15 12:53:19;;;;;;;7.05;2.70;;;25.70;46.30;;;;;;4894905;29;20470;-87
2022/07/15 12:55:49;;;;;;;4.65;3.03;;;25.60;47.20;;;;;;4895047;29;20040;-86
2022/07/15 12:58:24;;;;;;;6.10;2.58;;;25.80;46.30;;;;;;4943689;28;20038;-90
2022/07/15 13:00:51;;;;;;;8.60;3.60;;;26.00;47.00;;;;;;4976805;28;20035;-87
2022/07/15 13:03:19;;;;;;;4.53;2.85;;;25.80;46.40;;;;;;4975834;28;20542;-86
2022/07/15 13:05:47;;;;;;;5.15;2.30;;;25.80;45.60;;;;;;4983600;28;20046;-86
2022/07/15 13:08:17;;;;;;;7.70;3.30;;;25.60;45.80;;;;;;4977291;28;20118;-89
2022/07/15 13:10:51;;;;;;;7.03;1.95;;;25.20;46.50;;;;;;4961241;28;20062;-86
2022/07/15 13:13:19;;;;;;;4.82;2.45;;;24.90;46.90;;;;;;4977418;28;20388;-86
2022/07/15 13:15:46;;;;;;;5.65;2.90;;;24.60;48.20;;;;;;4987364;28;20092;-86
2022/07/15 13:18:15;;;;;;;8.02;2.65;;;24.50;48.80;;;;;;4988788;28;20030;-88
2022/07/15 13:20:42;;;;;;;5.97;2.63;;;24.40;47.70;;;;;;4993945;28;20038;-89